| time (UTC) | temp F | wind direction | speed MPH | gust MPH | rain 1hr in | rain 24hr in | rain mn in | humidity % | barometer mb |
| 20260905000046 | 70 | 0 | 0.0 | 1.0 | 0.00 | 1.41 | 0.52 | 98 | 1017.9 |
| 20260904235525 | 70 | 75 | 0.0 | 1.0 | 0.00 | 1.41 | 0.52 | 98 | 1018.1 |
| 20260904235029 | 70 | 0 | 0.0 | 0.0 | 0.00 | 1.41 | 0.52 | 98 | 1018.2 |
| 20260904234604 | 70 | 0 | 0.0 | 0.0 | 0.00 | 1.41 | 0.52 | 98 | 1018.4 |
| 20260904234025 | 70 | 0 | 0.0 | 0.0 | 0.00 | 1.41 | 0.52 | 98 | 1018.4 |
| 20260904233526 | 71 | 0 | 0.0 | 0.0 | 0.00 | 1.41 | 0.52 | 98 | 1018.3 |
| 20260904233102 | 71 | 0 | 0.0 | 0.0 | 0.00 | 1.41 | 0.52 | 98 | 1018.3 |
| 20260904232526 | 71 | 0 | 0.0 | 0.0 | 0.00 | 1.41 | 0.52 | 98 | 1018.2 |
| 20260904232031 | 71 | 0 | 0.0 | 0.0 | 0.00 | 1.41 | 0.52 | 98 | 1018.1 |
| 20260904231553 | 71 | 0 | 0.0 | 0.0 | 0.00 | 1.41 | 0.52 | 98 | 1017.9 |
| 20260904231028 | 71 | 0 | 0.0 | 0.0 | 0.00 | 1.41 | 0.52 | 98 | 1017.9 |
| 20260904230526 | 71 | 0 | 0.0 | 0.0 | 0.00 | 1.41 | 0.52 | 98 | 1017.5 |
| 20260904230046 | 71 | 0 | 0.0 | 0.0 | 0.00 | 1.41 | 0.52 | 98 | 1017.9 |
| 20260904225530 | 72 | 0 | 0.0 | 0.0 | 0.00 | 1.41 | 0.52 | 98 | 1017.8 |
| 20260904225025 | 72 | 0 | 0.0 | 0.0 | 0.00 | 1.41 | 0.52 | 98 | 1017.9 |
| 20260904224547 | 72 | 0 | 0.0 | 0.0 | 0.00 | 1.41 | 0.52 | 98 | 1018.0 |
| 20260904224024 | 72 | 0 | 0.0 | 0.0 | 0.00 | 1.41 | 0.52 | 98 | 1018.2 |
| 20260904223525 | 72 | 0 | 0.0 | 0.0 | 0.00 | 1.41 | 0.52 | 98 | 1018.3 |
| 20260904223054 | 72 | 0 | 0.0 | 0.0 | 0.00 | 1.41 | 0.52 | 98 | 1018.5 |
| 20260904222526 | 72 | 0 | 0.0 | 0.0 | 0.00 | 1.41 | 0.52 | 98 | 1018.5 |
| 20260904222024 | 72 | 0 | 0.0 | 0.0 | 0.00 | 1.41 | 0.52 | 98 | 1018.6 |
| 20260904221548 | 72 | 0 | 0.0 | 0.0 | 0.00 | 1.41 | 0.52 | 98 | 1018.6 |
| 20260904221026 | 72 | 0 | 0.0 | 0.0 | 0.00 | 1.41 | 0.52 | 98 | 1018.5 |
| 20260904220526 | 72 | 0 | 0.0 | 0.0 | 0.00 | 1.41 | 0.52 | 98 | 1018.8 |
| 20260904220048 | 72 | 0 | 0.0 | 0.0 | 0.00 | 1.41 | 0.52 | 98 | 1018.8 |
| 20260904215525 | 72 | 0 | 0.0 | 0.0 | 0.00 | 1.41 | 0.52 | 98 | 1019.0 |
| 20260904215028 | 72 | 0 | 0.0 | 0.0 | 0.00 | 1.41 | 0.52 | 98 | 1018.8 |
| 20260904214602 | 72 | 0 | 0.0 | 1.0 | 0.00 | 1.41 | 0.52 | 98 | 1018.9 |
| 20260904214029 | 72 | 0 | 0.0 | 1.0 | 0.00 | 1.41 | 0.52 | 98 | 1018.6 |
| 20260904213524 | 72 | 0 | 0.0 | 1.0 | 0.00 | 1.41 | 0.52 | 98 | 1018.5 |
| 20260904213047 | 72 | 0 | 0.0 | 0.0 | 0.00 | 1.41 | 0.52 | 98 | 1018.6 |
| 20260904212528 | 72 | 0 | 0.0 | 0.0 | 0.00 | 1.41 | 0.52 | 98 | 1018.8 |
| 20260904212028 | 72 | 0 | 0.0 | 0.0 | 0.00 | 1.41 | 0.52 | 98 | 1018.9 |
| 20260904211607 | 72 | 0 | 0.0 | 1.0 | 0.00 | 1.41 | 0.52 | 98 | 1018.8 |
| 20260904211025 | 72 | 0 | 0.0 | 3.0 | 0.00 | 1.41 | 0.52 | 98 | 1018.7 |
| 20260904210525 | 71 | 0 | 0.0 | 3.0 | 0.00 | 1.41 | 0.52 | 98 | 1018.8 |
| 20260904210055 | 72 | 28 | 0.0 | 3.0 | 0.00 | 1.41 | 0.52 | 98 | 1018.8 |
| 20260904205529 | 72 | 0 | 0.0 | 1.0 | 0.00 | 1.41 | 0.52 | 98 | 1018.9 |
| 20260904205026 | 72 | 0 | 0.0 | 1.0 | 0.00 | 1.41 | 0.52 | 98 | 1018.9 |
| 20260904204547 | 72 | 0 | 0.0 | 0.0 | 0.01 | 1.41 | 0.52 | 98 | 1019.1 |
| 20260904204030 | 72 | 0 | 0.0 | 0.0 | 0.03 | 1.41 | 0.52 | 98 | 1019.1 |
| 20260904203527 | 72 | 0 | 0.0 | 1.0 | 0.06 | 1.41 | 0.52 | 98 | 1018.8 |
| 20260904203100 | 72 | 0 | 0.0 | 1.0 | 0.06 | 1.41 | 0.52 | 98 | 1018.8 |
| 20260904202527 | 72 | 116 | 0.0 | 0.0 | 0.08 | 1.41 | 0.52 | 98 | 1018.7 |
| 20260904202025 | 72 | 0 | 0.0 | 0.0 | 0.10 | 1.41 | 0.52 | 98 | 1018.6 |
| 20260904201601 | 72 | 0 | 0.0 | 0.0 | 0.10 | 1.41 | 0.52 | 98 | 1018.8 |
| 20260904201025 | 72 | 0 | 0.0 | 1.0 | 0.10 | 1.41 | 0.52 | 98 | 1018.9 |
| 20260904200526 | 72 | 0 | 0.0 | 2.0 | 0.10 | 1.41 | 0.52 | 98 | 1019.2 |
| 20260904200058 | 72 | 0 | 0.0 | 2.0 | 0.10 | 1.41 | 0.52 | 98 | 1019.4 |
| 20260904195526 | 72 | 117 | 0.0 | 2.0 | 0.10 | 1.41 | 0.52 | 98 | 1019.5 |
| 20260904195025 | 73 | 56 | 0.0 | 2.0 | 0.10 | 1.41 | 0.52 | 98 | 1019.8 |
| 20260904194552 | 73 | 0 | 0.0 | 2.0 | 0.09 | 1.40 | 0.51 | 98 | 1020.2 |
| 20260904194025 | 73 | 128 | 0.0 | 2.0 | 0.07 | 1.38 | 0.49 | 98 | 1020.4 |
| 20260904193526 | 73 | 244 | 1.0 | 2.0 | 0.04 | 1.35 | 0.46 | 98 | 1020.3 |
| 20260904193048 | 73 | 150 | 0.0 | 1.0 | 0.03 | 1.34 | 0.45 | 97 | 1020.1 |
| 20260904192525 | 73 | 117 | 0.0 | 1.0 | 0.02 | 1.33 | 0.44 | 97 | 1020.0 |
| 20260904192024 | 73 | 0 | 0.0 | 0.0 | 0.00 | 1.31 | 0.42 | 97 | 1019.7 |
| 20260904191600 | 73 | 0 | 0.0 | 0.0 | 0.00 | 1.31 | 0.42 | 97 | 1019.6 |
| 20260904191025 | 73 | 0 | 0.0 | 0.0 | 0.00 | 1.31 | 0.42 | 97 | 1019.2 |
| 20260904190528 | 73 | 0 | 0.0 | 0.0 | 0.00 | 1.31 | 0.42 | 97 | 1019.2 |
| 20260904190057 | 73 | 0 | 0.0 | 0.0 | 0.00 | 1.31 | 0.42 | 97 | 1019.5 |
| 20260904185526 | 73 | 0 | 0.0 | 1.0 | 0.00 | 1.31 | 0.42 | 97 | 1019.6 |
| 20260904185026 | 73 | 0 | 0.0 | 1.0 | 0.00 | 1.31 | 0.42 | 96 | 1019.4 |
| 20260904184600 | 74 | 0 | 0.0 | 1.0 | 0.00 | 1.31 | 0.42 | 96 | 1019.3 |
| 20260904184029 | 74 | 0 | 0.0 | 1.0 | 0.00 | 1.31 | 0.42 | 97 | 1019.3 |
| 20260904183525 | 74 | 0 | 0.0 | 1.0 | 0.00 | 1.31 | 0.42 | 97 | 1019.4 |
| 20260904183045 | 74 | 0 | 0.0 | 1.0 | 0.02 | 1.31 | 0.42 | 97 | 1019.3 |
| 20260904182523 | 74 | 118 | 0.0 | 1.0 | 0.14 | 1.31 | 0.42 | 97 | 1019.1 |
| 20260904182029 | 74 | 119 | 0.0 | 1.0 | 0.41 | 1.31 | 0.42 | 97 | 1018.9 |
| 20260904181558 | 74 | 0 | 0.0 | 0.0 | 0.42 | 1.31 | 0.42 | 97 | 1019.3 |
| 20260904181027 | 73 | 0 | 0.0 | 0.0 | 0.42 | 1.31 | 0.42 | 97 | 1019.4 |
| 20260904180526 | 73 | 0 | 0.0 | 0.0 | 0.42 | 1.31 | 0.42 | 97 | 1019.8 |
| 20260904175526 | 72 | 0 | 0.0 | 1.0 | 0.42 | 1.31 | 0.42 | 95 | 1020.0 |
| 20260904175025 | 72 | 0 | 0.0 | 1.0 | 0.42 | 1.31 | 0.42 | 95 | 1020.1 |
| 20260904174558 | 73 | 89 | 0.0 | 1.0 | 0.42 | 1.31 | 0.42 | 95 | 1020.1 |
| 20260904174026 | 73 | 88 | 0.0 | 3.0 | 0.42 | 1.31 | 0.42 | 94 | 1020.0 |
| 20260904173523 | 74 | 88 | 1.0 | 5.0 | 0.42 | 1.31 | 0.42 | 92 | 1020.0 |
| 20260904173056 | 75 | 122 | 2.0 | 9.0 | 0.38 | 1.27 | 0.38 | 87 | 1020.0 |
| 20260904172558 | 79 | 51 | 2.0 | 9.0 | 0.25 | 1.14 | 0.25 | 84 | 1020.5 |
| 20260904171555 | 84 | 0 | 0.0 | 1.0 | 0.00 | 0.89 | 0.00 | 81 | 1019.1 |
| 20260904171026 | 84 | 0 | 0.0 | 2.0 | 0.00 | 0.89 | 0.00 | 81 | 1019.0 |
| 20260904170528 | 83 | 162 | 0.0 | 2.0 | 0.00 | 0.89 | 0.00 | 82 | 1019.1 |
| 20260904170049 | 83 | 227 | 0.0 | 1.0 | 0.00 | 0.89 | 0.00 | 83 | 1019.3 |
| 20260904165524 | 83 | 24 | 0.0 | 1.0 | 0.00 | 0.89 | 0.00 | 82 | 1019.4 |
| 20260904165025 | 82 | 148 | 0.0 | 2.0 | 0.00 | 0.89 | 0.00 | 83 | 1019.5 |
| 20260904164603 | 82 | 147 | 0.0 | 2.0 | 0.00 | 0.89 | 0.00 | 84 | 1019.5 |
| 20260904164028 | 82 | 0 | 0.0 | 2.0 | 0.00 | 0.89 | 0.00 | 84 | 1019.6 |
| 20260904163524 | 81 | 147 | 0.0 | 2.0 | 0.00 | 0.89 | 0.00 | 85 | 1019.9 |
| 20260904163100 | 81 | 109 | 0.0 | 1.0 | 0.00 | 0.89 | 0.00 | 85 | 1020.0 |
| 20260904162529 | 80 | 0 | 0.0 | 1.0 | 0.00 | 0.89 | 0.00 | 85 | 1019.9 |
| 20260904162027 | 80 | 0 | 0.0 | 1.0 | 0.00 | 0.89 | 0.00 | 86 | 1019.8 |
| 20260904161548 | 80 | 0 | 0.0 | 1.0 | 0.00 | 0.89 | 0.00 | 86 | 1019.8 |
| 20260904161027 | 80 | 114 | 0.0 | 1.0 | 0.00 | 0.89 | 0.00 | 86 | 1019.8 |
| 20260904160526 | 79 | 0 | 0.0 | 1.0 | 0.00 | 0.89 | 0.00 | 87 | 1019.9 |
| 20260904160047 | 79 | 0 | 0.0 | 1.0 | 0.00 | 0.89 | 0.00 | 87 | 1020.0 |
| 20260904155525 | 79 | 167 | 0.0 | 1.0 | 0.00 | 0.89 | 0.00 | 89 | 1020.1 |
| 20260904155025 | 78 | 0 | 0.0 | 1.0 | 0.00 | 0.89 | 0.00 | 89 | 1020.2 |
| 20260904154558 | 78 | 0 | 0.0 | 1.0 | 0.00 | 0.89 | 0.00 | 90 | 1020.1 |
| 20260904154025 | 78 | 177 | 0.0 | 1.0 | 0.00 | 0.89 | 0.00 | 91 | 1020.1 |
| 20260904153528 | 77 | 0 | 0.0 | 1.0 | 0.00 | 0.89 | 0.00 | 91 | 1020.1 |
| 20260904153102 | 76 | 0 | 0.0 | 1.0 | 0.00 | 0.89 | 0.00 | 92 | 1020.1 |
| 20260904152526 | 76 | 0 | 0.0 | 1.0 | 0.00 | 0.89 | 0.00 | 93 | 1020.1 |
| 20260904152024 | 76 | 125 | 0.0 | 1.0 | 0.00 | 0.89 | 0.00 | 93 | 1020.2 |
| 20260904151546 | 75 | 0 | 0.0 | 1.0 | 0.00 | 0.89 | 0.00 | 94 | 1020.2 |
| 20260904151028 | 75 | 125 | 0.0 | 1.0 | 0.00 | 0.89 | 0.00 | 95 | 1020.2 |
| 20260904150525 | 75 | 0 | 0.0 | 1.0 | 0.00 | 0.89 | 0.00 | 95 | 1020.1 |
| 20260904150047 | 74 | 0 | 0.0 | 1.0 | 0.00 | 0.89 | 0.00 | 96 | 1020.0 |
| 20260904145525 | 74 | 0 | 0.0 | 1.0 | 0.00 | 0.89 | 0.00 | 96 | 1020.1 |
| 20260904145030 | 73 | 0 | 0.0 | 1.0 | 0.00 | 0.89 | 0.00 | 97 | 1020.0 |
| 20260904144558 | 73 | 0 | 0.0 | 1.0 | 0.00 | 0.89 | 0.00 | 98 | 1020.0 |
| 20260904144024 | 73 | 0 | 0.0 | 1.0 | 0.00 | 0.89 | 0.00 | 98 | 1019.9 |
| 20260904143527 | 72 | 0 | 0.0 | 1.0 | 0.00 | 0.89 | 0.00 | 99 | 1020.1 |
| 20260904143053 | 72 | 0 | 0.0 | 1.0 | 0.00 | 0.89 | 0.00 | 99 | 1020.0 |
| 20260904142526 | 72 | 139 | 0.0 | 1.0 | 0.00 | 0.89 | 0.00 | 99 | 1020.0 |
| 20260904142027 | 71 | 0 | 0.0 | 1.0 | 0.00 | 0.89 | 0.00 | 99 | 1020.1 |
| 20260904141609 | 71 | 211 | 0.0 | 1.0 | 0.00 | 0.89 | 0.00 | 99 | 1020.1 |
| 20260904141026 | 71 | 0 | 0.0 | 1.0 | 0.00 | 0.89 | 0.00 | 99 | 1020.1 |
| 20260904140525 | 71 | 0 | 0.0 | 1.0 | 0.00 | 0.89 | 0.00 | 99 | 1020.0 |
| 20260904140100 | 70 | 0 | 0.0 | 0.0 | 0.00 | 0.89 | 0.00 | 99 | 1020.2 |
| 20260904135525 | 70 | 0 | 0.0 | 0.0 | 0.00 | 0.89 | 0.00 | 99 | 1020.1 |
| 20260904135025 | 70 | 0 | 0.0 | 0.0 | 0.00 | 0.89 | 0.00 | 99 | 1020.3 |
| 20260904134600 | 69 | 0 | 0.0 | 0.0 | 0.00 | 0.89 | 0.00 | 99 | 1020.3 |
| 20260904134027 | 69 | 0 | 0.0 | 0.0 | 0.00 | 0.89 | 0.00 | 99 | 1020.4 |
| 20260904133524 | 69 | 0 | 0.0 | 0.0 | 0.00 | 0.89 | 0.00 | 99 | 1020.4 |
| 20260904133053 | 69 | 0 | 0.0 | 0.0 | 0.00 | 0.89 | 0.00 | 99 | 1020.5 |
| 20260904132526 | 69 | 0 | 0.0 | 0.0 | 0.00 | 0.89 | 0.00 | 99 | 1020.5 |
| 20260904132026 | 69 | 0 | 0.0 | 0.0 | 0.00 | 0.89 | 0.00 | 99 | 1020.5 |
| 20260904131605 | 69 | 0 | 0.0 | 0.0 | 0.00 | 0.89 | 0.00 | 99 | 1020.5 |
| 20260904131025 | 69 | 0 | 0.0 | 0.0 | 0.00 | 0.89 | 0.00 | 99 | 1020.7 |
| 20260904130526 | 69 | 0 | 0.0 | 0.0 | 0.00 | 0.89 | 0.00 | 99 | 1020.5 |
| 20260904130057 | 69 | 0 | 0.0 | 0.0 | 0.00 | 0.89 | 0.00 | 99 | 1020.4 |
| 20260904125527 | 68 | 0 | 0.0 | 0.0 | 0.00 | 0.89 | 0.00 | 99 | 1020.5 |
| 20260904125026 | 68 | 0 | 0.0 | 0.0 | 0.00 | 0.89 | 0.00 | 99 | 1020.6 |
| 20260904124554 | 68 | 0 | 0.0 | 0.0 | 0.00 | 0.89 | 0.00 | 99 | 1020.6 |
| 20260904124025 | 68 | 0 | 0.0 | 0.0 | 0.00 | 0.89 | 0.00 | 99 | 1020.5 |
| 20260904123531 | 68 | 0 | 0.0 | 0.0 | 0.00 | 0.89 | 0.00 | 99 | 1020.7 |
| 20260904123104 | 67 | 0 | 0.0 | 0.0 | 0.00 | 0.89 | 0.00 | 99 | 1020.6 |
| 20260904122529 | 67 | 0 | 0.0 | 0.0 | 0.00 | 0.89 | 0.00 | 99 | 1020.6 |
| 20260904122026 | 67 | 0 | 0.0 | 0.0 | 0.00 | 0.89 | 0.00 | 99 | 1020.5 |
| 20260904121556 | 67 | 0 | 0.0 | 0.0 | 0.00 | 0.89 | 0.00 | 99 | 1020.4 |
| 20260904121028 | 67 | 0 | 0.0 | 0.0 | 0.00 | 0.89 | 0.00 | 99 | 1020.4 |
| 20260904120526 | 67 | 0 | 0.0 | 0.0 | 0.00 | 0.89 | 0.00 | 99 | 1020.3 |
| 20260904120100 | 67 | 0 | 0.0 | 0.0 | 0.00 | 0.89 | 0.00 | 99 | 1020.3 |
| 20260904115528 | 67 | 0 | 0.0 | 0.0 | 0.00 | 0.89 | 0.00 | 99 | 1020.3 |
| 20260904115029 | 67 | 0 | 0.0 | 0.0 | 0.00 | 0.89 | 0.00 | 99 | 1020.4 |
| 20260904114547 | 67 | 0 | 0.0 | 0.0 | 0.00 | 0.89 | 0.00 | 99 | 1020.3 |
| 20260904114026 | 67 | 0 | 0.0 | 0.0 | 0.00 | 0.89 | 0.00 | 99 | 1020.3 |
| 20260904113526 | 67 | 0 | 0.0 | 0.0 | 0.00 | 0.89 | 0.00 | 99 | 1020.1 |
| 20260904113059 | 67 | 0 | 0.0 | 0.0 | 0.00 | 0.89 | 0.00 | 99 | 1020.1 |
| 20260904112528 | 67 | 0 | 0.0 | 0.0 | 0.00 | 0.89 | 0.00 | 99 | 1020.2 |
| 20260904112121 | 67 | 0 | 0.0 | 1.0 | 0.00 | 0.89 | 0.00 | 99 | 1020.2 |
| 20260904111557 | 67 | 0 | 0.0 | 1.0 | 0.00 | 0.89 | 0.00 | 99 | 1020.1 |
| 20260904111030 | 67 | 0 | 0.0 | 0.0 | 0.00 | 0.89 | 0.00 | 98 | 1020.0 |
| 20260904110526 | 67 | 0 | 0.0 | 0.0 | 0.00 | 0.89 | 0.00 | 98 | 1020.1 |
| 20260904110053 | 67 | 0 | 0.0 | 1.0 | 0.00 | 0.89 | 0.00 | 98 | 1020.0 |
| 20260904105530 | 67 | 0 | 0.0 | 1.0 | 0.00 | 0.89 | 0.00 | 98 | 1019.9 |
| 20260904105028 | 67 | 0 | 0.0 | 1.0 | 0.00 | 0.89 | 0.00 | 98 | 1020.0 |
| 20260904104550 | 67 | 0 | 0.0 | 1.0 | 0.00 | 0.89 | 0.00 | 98 | 1019.8 |
| 20260904104025 | 67 | 0 | 0.0 | 1.0 | 0.00 | 0.89 | 0.00 | 98 | 1019.8 |
| 20260904103529 | 67 | 214 | 0.0 | 1.0 | 0.00 | 0.89 | 0.00 | 98 | 1019.8 |
| 20260904103049 | 67 | 0 | 0.0 | 0.0 | 0.00 | 0.89 | 0.00 | 98 | 1019.8 |
| 20260904102526 | 67 | 0 | 0.0 | 0.0 | 0.00 | 0.89 | 0.00 | 98 | 1019.7 |
| 20260904102026 | 67 | 0 | 0.0 | 1.0 | 0.00 | 0.89 | 0.00 | 98 | 1019.7 |
| 20260904101556 | 67 | 0 | 0.0 | 1.0 | 0.00 | 0.89 | 0.00 | 98 | 1019.6 |
| 20260904101026 | 67 | 127 | 0.0 | 1.0 | 0.00 | 0.89 | 0.00 | 98 | 1019.6 |
| 20260904100525 | 67 | 0 | 0.0 | 1.0 | 0.00 | 0.89 | 0.00 | 98 | 1019.7 |
| 20260904100053 | 67 | 0 | 0.0 | 1.0 | 0.00 | 0.89 | 0.00 | 98 | 1019.9 |
| 20260904095530 | 67 | 160 | 0.0 | 1.0 | 0.00 | 0.89 | 0.00 | 98 | 1020.3 |
| 20260904095024 | 67 | 119 | 0.0 | 0.0 | 0.00 | 0.89 | 0.00 | 98 | 1020.8 |
| 20260904094546 | 67 | 0 | 0.0 | 1.0 | 0.00 | 0.89 | 0.00 | 98 | 1021.0 |
| 20260904094026 | 67 | 0 | 0.0 | 1.0 | 0.00 | 0.89 | 0.00 | 98 | 1020.9 |
| 20260904093526 | 67 | 119 | 0.0 | 0.0 | 0.00 | 0.89 | 0.00 | 98 | 1021.0 |
| 20260904093045 | 67 | 0 | 0.0 | 0.0 | 0.00 | 0.89 | 0.00 | 98 | 1020.9 |
| 20260904092528 | 67 | 0 | 0.0 | 1.0 | 0.00 | 0.89 | 0.00 | 98 | 1020.7 |
| 20260904092029 | 67 | 0 | 0.0 | 1.0 | 0.00 | 0.89 | 0.00 | 98 | 1020.6 |
| 20260904091546 | 67 | 0 | 0.0 | 0.0 | 0.00 | 0.89 | 0.00 | 98 | 1020.4 |
| 20260904091024 | 67 | 0 | 0.0 | 1.0 | 0.00 | 0.89 | 0.00 | 98 | 1020.2 |
| 20260904090525 | 67 | 0 | 0.0 | 1.0 | 0.00 | 0.89 | 0.00 | 98 | 1020.2 |
| 20260904090056 | 67 | 0 | 0.0 | 1.0 | 0.00 | 0.89 | 0.00 | 98 | 1020.1 |
| 20260904085531 | 67 | 0 | 0.0 | 1.0 | 0.00 | 0.89 | 0.00 | 98 | 1020.1 |
| 20260904085023 | 67 | 0 | 0.0 | 2.0 | 0.00 | 0.89 | 0.00 | 98 | 1020.2 |
| 20260904084550 | 68 | 115 | 0.0 | 2.0 | 0.00 | 0.89 | 0.00 | 98 | 1020.7 |
| 20260904084026 | 68 | 0 | 0.0 | 3.0 | 0.00 | 0.89 | 0.00 | 98 | 1020.6 |
| 20260904083525 | 68 | 0 | 0.0 | 3.0 | 0.00 | 0.89 | 0.00 | 98 | 1020.7 |
| 20260904083055 | 68 | 121 | 0.0 | 2.0 | 0.00 | 0.89 | 0.00 | 98 | 1020.6 |
| 20260904082527 | 68 | 116 | 0.0 | 1.0 | 0.00 | 0.89 | 0.00 | 98 | 1020.7 |
| 20260904082027 | 68 | 117 | 0.0 | 2.0 | 0.00 | 0.89 | 0.00 | 98 | 1020.7 |
| 20260904081557 | 68 | 58 | 0.0 | 3.0 | 0.00 | 0.89 | 0.00 | 98 | 1020.8 |
| 20260904081026 | 68 | 95 | 1.0 | 3.0 | 0.00 | 0.89 | 0.00 | 98 | 1020.7 |
| 20260904080528 | 68 | 103 | 1.0 | 2.0 | 0.00 | 0.89 | 0.00 | 99 | 1020.7 |
| 20260904080051 | 68 | 120 | 1.0 | 2.0 | 0.00 | 0.89 | 0.00 | 99 | 1020.5 |
| 20260904075527 | 68 | 293 | 0.0 | 3.0 | 0.00 | 0.89 | 0.00 | 99 | 1020.5 |
| 20260904075027 | 68 | 0 | 0.0 | 4.0 | 0.00 | 0.89 | 0.00 | 99 | 1020.6 |
| 20260904074557 | 68 | 37 | 1.0 | 5.0 | 0.00 | 0.89 | 0.00 | 99 | 1020.7 |
| 20260904074025 | 68 | 259 | 2.0 | 5.0 | 0.00 | 0.89 | 0.00 | 99 | 1020.5 |
| 20260904073524 | 67 | 0 | 0.0 | 1.0 | 0.00 | 0.89 | 0.00 | 98 | 1019.6 |
| 20260904073048 | 67 | 0 | 0.0 | 1.0 | 0.00 | 0.89 | 0.00 | 99 | 1019.4 |
| 20260904072525 | 67 | 0 | 0.0 | 0.0 | 0.00 | 0.89 | 0.00 | 98 | 1019.4 |
| 20260904072025 | 67 | 0 | 0.0 | 0.0 | 0.00 | 0.89 | 0.00 | 98 | 1019.2 |
| 20260904071600 | 67 | 0 | 0.0 | 0.0 | 0.00 | 0.89 | 0.00 | 98 | 1019.1 |
| 20260904071026 | 67 | 0 | 0.0 | 1.0 | 0.00 | 0.89 | 0.00 | 98 | 1018.9 |
| 20260904070530 | 67 | 0 | 0.0 | 1.0 | 0.00 | 0.89 | 0.00 | 98 | 1018.9 |
| 20260904070053 | 67 | 0 | 0.0 | 1.0 | 0.00 | 0.89 | 0.00 | 98 | 1018.7 |
| 20260904065525 | 67 | 0 | 0.0 | 1.0 | 0.00 | 0.89 | 0.00 | 98 | 1018.8 |
| 20260904065027 | 67 | 0 | 0.0 | 1.0 | 0.00 | 0.89 | 0.00 | 98 | 1018.9 |
| 20260904064550 | 67 | 0 | 0.0 | 0.0 | 0.00 | 0.89 | 0.00 | 98 | 1019.0 |
| 20260904064029 | 67 | 0 | 0.0 | 0.0 | 0.00 | 0.89 | 0.00 | 98 | 1019.0 |
| 20260904063526 | 67 | 0 | 0.0 | 0.0 | 0.00 | 0.89 | 0.00 | 98 | 1019.0 |
| 20260904063103 | 67 | 0 | 0.0 | 1.0 | 0.00 | 0.89 | 0.00 | 98 | 1019.0 |
| 20260904062530 | 67 | 0 | 0.0 | 1.0 | 0.00 | 0.89 | 0.00 | 98 | 1019.1 |
| 20260904062024 | 67 | 0 | 0.0 | 1.0 | 0.00 | 0.89 | 0.00 | 98 | 1019.2 |
| 20260904061601 | 67 | 0 | 0.0 | 1.0 | 0.00 | 0.89 | 0.00 | 98 | 1019.2 |
| 20260904061030 | 67 | 0 | 0.0 | 0.0 | 0.00 | 0.89 | 0.00 | 98 | 1019.1 |
| 20260904060526 | 67 | 0 | 0.0 | 0.0 | 0.00 | 0.89 | 0.00 | 98 | 1019.2 |
| 20260904060110 | 67 | 0 | 0.0 | 0.0 | 0.00 | 0.89 | 0.00 | 98 | 1019.3 |
| 20260904055525 | 67 | 0 | 0.0 | 0.0 | 0.00 | 0.89 | 0.00 | 98 | 1019.4 |
| 20260904055026 | 67 | 0 | 0.0 | 0.0 | 0.00 | 0.89 | 0.00 | 98 | 1019.3 |
| 20260904054551 | 67 | 0 | 0.0 | 0.0 | 0.00 | 0.89 | 0.00 | 98 | 1019.4 |
| 20260904054027 | 67 | 0 | 0.0 | 0.0 | 0.00 | 0.89 | 0.00 | 98 | 1019.4 |
| 20260904053524 | 67 | 0 | 0.0 | 0.0 | 0.00 | 0.89 | 0.00 | 98 | 1019.5 |
| 20260904053059 | 67 | 0 | 0.0 | 0.0 | 0.00 | 0.89 | 0.00 | 98 | 1019.6 |
| 20260904052524 | 67 | 0 | 0.0 | 1.0 | 0.00 | 0.89 | 0.00 | 98 | 1019.5 |
| 20260904052028 | 67 | 0 | 0.0 | 1.0 | 0.00 | 0.89 | 0.00 | 98 | 1019.8 |
| 20260904051547 | 67 | 0 | 0.0 | 1.0 | 0.00 | 0.89 | 0.00 | 98 | 1019.8 |
| 20260904051024 | 67 | 0 | 0.0 | 0.0 | 0.00 | 0.89 | 0.00 | 98 | 1020.0 |
| 20260904050526 | 67 | 0 | 0.0 | 0.0 | 0.00 | 0.89 | 0.00 | 98 | 1020.1 |
| 20260904050050 | 67 | 0 | 0.0 | 1.0 | 0.00 | 0.89 | 0.00 | 98 | 1020.0 |
| 20260904045526 | 67 | 0 | 0.0 | 1.0 | 0.00 | 0.89 | 0.00 | 98 | 1020.2 |
| 20260904045027 | 67 | 0 | 0.0 | 1.0 | 0.00 | 0.89 | 0.00 | 98 | 1020.4 |
| 20260904044550 | 67 | 0 | 0.0 | 0.0 | 0.00 | 0.89 | 0.00 | 98 | 1020.5 |
| 20260904044027 | 67 | 0 | 0.0 | 0.0 | 0.00 | 0.89 | 0.00 | 98 | 1020.5 |
| 20260904043524 | 67 | 0 | 0.0 | 0.0 | 0.00 | 0.89 | 0.00 | 98 | 1020.6 |
| 20260904043055 | 67 | 0 | 0.0 | 0.0 | 0.00 | 0.89 | 0.00 | 98 | 1020.6 |
| 20260904042526 | 67 | 0 | 0.0 | 0.0 | 0.00 | 0.89 | 0.00 | 98 | 1020.7 |
| 20260904042024 | 67 | 0 | 0.0 | 0.0 | 0.00 | 0.89 | 0.00 | 98 | 1020.7 |
| 20260904041552 | 67 | 0 | 0.0 | 0.0 | 0.00 | 0.89 | 0.00 | 98 | 1020.7 |
| 20260904041030 | 67 | 0 | 0.0 | 0.0 | 0.00 | 0.89 | 0.00 | 98 | 1020.8 |
| 20260904040528 | 67 | 0 | 0.0 | 0.0 | 0.00 | 0.89 | 0.00 | 98 | 1020.8 |
| 20260904035525 | 68 | 0 | 0.0 | 0.0 | 0.00 | 0.89 | 0.89 | 98 | 1020.8 |
| 20260904035026 | 68 | 0 | 0.0 | 0.0 | 0.00 | 0.89 | 0.89 | 98 | 1020.8 |
| 20260904034609 | 68 | 0 | 0.0 | 0.0 | 0.00 | 0.89 | 0.89 | 97 | 1020.9 |
| 20260904034024 | 68 | 0 | 0.0 | 0.0 | 0.00 | 0.89 | 0.89 | 97 | 1020.8 |
| 20260904033526 | 68 | 0 | 0.0 | 1.0 | 0.00 | 0.89 | 0.89 | 97 | 1021.0 |
| 20260904033054 | 68 | 0 | 0.0 | 1.0 | 0.00 | 0.89 | 0.89 | 98 | 1021.1 |
| 20260904032524 | 68 | 0 | 0.0 | 1.0 | 0.00 | 0.89 | 0.89 | 97 | 1021.2 |
| 20260904032026 | 68 | 0 | 0.0 | 1.0 | 0.00 | 0.89 | 0.89 | 97 | 1021.5 |
| 20260904031551 | 68 | 0 | 0.0 | 1.0 | 0.01 | 0.89 | 0.89 | 97 | 1021.3 |
| 20260904031024 | 68 | 109 | 0.0 | 1.0 | 0.02 | 0.89 | 0.89 | 97 | 1021.6 |
| 20260904030528 | 68 | 0 | 0.0 | 1.0 | 0.07 | 0.89 | 0.89 | 97 | 1021.8 |
| 20260904030100 | 68 | 0 | 0.0 | 1.0 | 0.18 | 0.89 | 0.89 | 97 | 1021.7 |
| 20260904025526 | 68 | 0 | 0.0 | 1.0 | 0.25 | 0.89 | 0.89 | 97 | 1021.8 |
| 20260904025026 | 68 | 0 | 0.0 | 1.0 | 0.44 | 0.89 | 0.89 | 97 | 1021.6 |
| 20260904024546 | 68 | 0 | 0.0 | 1.0 | 0.79 | 0.89 | 0.89 | 97 | 1021.6 |
| 20260904024025 | 68 | 0 | 0.0 | 0.0 | 0.89 | 0.89 | 0.89 | 97 | 1021.6 |
| 20260904023526 | 68 | 0 | 0.0 | 1.0 | 0.89 | 0.89 | 0.89 | 97 | 1022.2 |
| 20260904023105 | 68 | 0 | 0.0 | 1.0 | 0.89 | 0.89 | 0.89 | 96 | 1022.2 |
| 20260904022525 | 69 | 0 | 0.0 | 1.0 | 0.89 | 0.89 | 0.89 | 97 | 1022.3 |
| 20260904022027 | 69 | 0 | 0.0 | 3.0 | 0.89 | 0.89 | 0.89 | 96 | 1022.8 |
| 20260904021550 | 69 | 104 | 0.0 | 4.0 | 0.88 | 0.88 | 0.88 | 96 | 1023.1 |
| 20260904021026 | 69 | 245 | 2.0 | 4.0 | 0.87 | 0.87 | 0.87 | 96 | 1023.4 |
| 20260904020524 | 69 | 278 | 0.0 | 4.0 | 0.81 | 0.81 | 0.81 | 95 | 1023.2 |
| 20260904020056 | 69 | 309 | 0.0 | 6.0 | 0.70 | 0.70 | 0.70 | 94 | 1022.6 |
| 20260904015524 | 70 | 36 | 1.0 | 7.0 | 0.61 | 0.61 | 0.61 | 93 | 1022.2 |
| 20260904015454 | 71 | 53 | 3.0 | 7.0 | 0.42 | 0.42 | 0.42 | 91 | 1022.2 |
| 20260904014554 | 73 | 76 | 2.0 | 10.0 | 0.05 | 0.05 | 0.05 | 87 | 1022.1 |
| 20260904014029 | 75 | 58 | 4.0 | 10.0 | 0.00 | 0.00 | 0.00 | 84 | 1022.2 |
| 20260904013525 | 77 | 43 | 2.0 | 6.0 | 0.00 | 0.00 | 0.00 | 86 | 1022.1 |
| 20260904013049 | 78 | 55 | 2.0 | 4.0 | 0.00 | 0.00 | 0.00 | 88 | 1020.7 |
| 20260904012530 | 79 | 74 | 0.0 | 0.0 | 0.00 | 0.00 | 0.00 | 93 | 1020.3 |
| 20260904012032 | 79 | 0 | 0.0 | 0.0 | 0.00 | 0.00 | 0.00 | 93 | 1020.1 |
| 20260904011548 | 78 | 0 | 0.0 | 0.0 | 0.00 | 0.00 | 0.00 | 93 | 1019.8 |
| 20260904011028 | 78 | 0 | 0.0 | 0.0 | 0.00 | 0.00 | 0.00 | 93 | 1019.9 |
| 20260904010527 | 78 | 0 | 0.0 | 0.0 | 0.00 | 0.00 | 0.00 | 93 | 1019.7 |
| 20260904010100 | 78 | 0 | 0.0 | 0.0 | 0.00 | 0.00 | 0.00 | 93 | 1019.5 |
| 20260904005524 | 78 | 0 | 0.0 | 0.0 | 0.00 | 0.00 | 0.00 | 93 | 1019.1 |
| 20260904005024 | 78 | 0 | 0.0 | 0.0 | 0.00 | 0.00 | 0.00 | 93 | 1019.0 |
| 20260904004559 | 78 | 0 | 0.0 | 0.0 | 0.00 | 0.00 | 0.00 | 93 | 1019.2 |
| 20260904004026 | 78 | 0 | 0.0 | 0.0 | 0.00 | 0.00 | 0.00 | 93 | 1019.2 |
| 20260904003531 | 78 | 0 | 0.0 | 0.0 | 0.00 | 0.00 | 0.00 | 92 | 1019.1 |
| 20260904003049 | 79 | 0 | 0.0 | 0.0 | 0.00 | 0.00 | 0.00 | 92 | 1018.9 |
| 20260904002527 | 79 | 0 | 0.0 | 0.0 | 0.00 | 0.00 | 0.00 | 91 | 1018.7 |
| 20260904002026 | 79 | 0 | 0.0 | 0.0 | 0.00 | 0.00 | 0.00 | 90 | 1018.6 |
| 20260904001553 | 79 | 0 | 0.0 | 0.0 | 0.00 | 0.00 | 0.00 | 90 | 1018.6 |
| 20260904001029 | 79 | 0 | 0.0 | 0.0 | 0.00 | 0.00 | 0.00 | 90 | 1018.6 |
| 20260904000525 | 80 | 0 | 0.0 | 0.0 | 0.00 | 0.00 | 0.00 | 90 | 1018.9 |